Terminal Aerodrome Forecast
Issued by NWS Blacksburg, VA

Current Version | Previous Version | Graphics & Text | Print | Product List | Glossary On
Versions: 1 2 3 4 5 6 7 8 9 10 11 12 13 14 15 16 17 18 19 20 21 22
000
FTUS41 KRNK 220955 AAC
TAFBLF
TAF AMD
KBLF 220955Z 2210/2306 30008KT P6SM -RA BKN008 OVC020
     FM221200 30010G20KT P6SM SCT012 OVC020
     FM222000 30010G20KT P6SM SCT020 OVC040
     FM230100 31008KT P6SM BKN050=

USA.gov is the U.S. government's official web portal to all federal, state and local government web resources and services.